Time;durP1;ratioP1;P1;durP2;ratioP2;P2;SDS_P1;SDS_P2;PMS_P1;PMS_P2;Temp;Humidity;BMP_temperature;BMP_pressure;BME280_temperature;BME280_humidity;BME280_pressure;Samples;Min_cycle;Max_cycle;Signal;HPM_P1;HPM_P2
2022/09/14 04:42:18;;;;;;;2.83;1.65;;;;;;;;;;5088857;27;20531;-89
2022/09/14 04:44:44;;;;;;;2.92;2.30;;;;;;;;;;5068194;28;20183;-89
2022/09/14 04:47:10;;;;;;;3.00;2.08;;;;;;;;;;5085789;28;20190;-89
2022/09/14 04:49:36;;;;;;;2.95;2.72;;;;;;;;;;5069615;28;20190;-88
2022/09/14 04:52:02;;;;;;;3.40;2.50;;;;;;;;;;5087362;28;20233;-88
2022/09/14 04:54:28;;;;;;;4.07;2.50;;;12.80;99.90;;;;;;5085198;28;20201;-88
2022/09/14 04:56:54;;;;;;;1.92;1.75;;;;;;;;;;5077333;28;20676;-89
2022/09/14 04:59:20;;;;;;;3.92;3.35;;;;;;;;;;5074244;28;20548;-88
2022/09/14 05:01:46;;;;;;;4.75;3.35;;;13.30;99.90;;;;;;5068026;28;20278;-86
2022/09/14 05:04:12;;;;;;;4.50;3.45;;;13.30;99.90;;;;;;5080789;28;20217;-88
2022/09/14 05:06:39;;;;;;;3.25;2.33;;;;;;;;;;5060426;28;20167;-89
2022/09/14 05:09:06;;;;;;;5.85;2.33;;;;;;;;;;5066255;28;20176;-90
2022/09/14 05:11:33;;;;;;;4.45;2.58;;;;;;;;;;5061650;28;20195;-89
2022/09/14 05:14:00;;;;;;;2.35;2.00;;;;;;;;;;5076159;28;20186;-89
2022/09/14 05:16:28;;;;;;;7.50;3.25;;;13.60;99.90;;;;;;5072932;28;20684;-88
2022/09/14 05:18:56;;;;;;;2.78;2.45;;;13.80;99.90;;;;;;5087131;28;20243;-92
2022/09/14 05:21:23;;;;;;;6.82;3.47;;;14.20;99.90;;;;;;5088712;28;20178;-88
2022/09/14 05:23:56;;;;;;;3.03;2.40;;;13.70;99.90;;;;;;5087960;28;20629;-85
2022/09/14 05:26:24;;;;;;;3.50;3.17;;;13.80;99.90;;;;;;5087975;28;20499;-88
2022/09/14 05:28:56;;;;;;;4.38;3.90;;;13.70;99.90;;;;;;5088002;28;20682;-86
2022/09/14 05:31:22;;;;;;;6.82;3.42;;;13.80;99.90;;;;;;5087879;28;20201;-89
2022/09/14 05:33:49;;;;;;;4.63;2.70;;;;;;;;;;5087926;28;20753;-87
2022/09/14 05:36:15;;;;;;;3.95;3.22;;;13.40;99.90;;;;;;5088204;28;20216;-89
2022/09/14 05:38:41;;;;;;;4.97;2.88;;;13.80;99.90;;;;;;5089963;28;20232;-89
2022/09/14 05:41:11;;;;;;;4.00;3.47;;;14.00;99.90;;;;;;5078337;28;20241;-88
2022/09/14 05:43:37;;;;;;;5.22;3.38;;;13.90;99.90;;;;;;5090013;28;20247;-88
2022/09/14 05:46:05;;;;;;;5.88;3.35;;;14.20;99.90;;;;;;5089499;28;20182;-88
2022/09/14 05:48:35;;;;;;;3.40;3.10;;;13.90;99.90;;;;;;5089663;28;20202;-88
2022/09/14 05:51:04;;;;;;;4.57;4.18;;;13.80;99.90;;;;;;5088308;28;20297;-88
2022/09/14 05:53:30;;;;;;;2.97;2.45;;;13.80;99.90;;;;;;5077075;28;20171;-88
2022/09/14 05:56:10;;;;;;;5.20;3.78;;;14.10;99.90;;;;;;5075767;28;20225;-88
2022/09/14 05:58:37;;;;;;;3.05;2.53;;;14.60;99.90;;;;;;5076135;28;20159;-89
2022/09/14 06:01:11;;;;;;;5.15;3.72;;;14.00;99.90;;;;;;5074441;28;20187;-87
2022/09/14 06:03:37;;;;;;;6.22;3.15;;;13.90;99.90;;;;;;5063258;28;20179;-89
2022/09/14 06:06:04;;;;;;;7.20;4.68;;;14.30;99.90;;;;;;5055572;28;20187;-88
2022/09/14 06:08:30;;;;;;;4.28;3.28;;;14.50;99.90;;;;;;5055414;28;20568;-90
2022/09/14 06:10:56;;;;;;;5.00;3.78;;;;;;;;;;5056395;28;20196;-88
2022/09/14 06:13:22;;;;;;;5.35;3.35;;;14.70;99.90;;;;;;5062032;28;20176;-89
2022/09/14 06:15:48;;;;;;;6.18;3.50;;;;;;;;;;5071939;28;20205;-90
2022/09/14 06:18:14;;;;;;;4.70;3.25;;;14.50;99.90;;;;;;5074553;28;20179;-89
2022/09/14 06:20:40;;;;;;;5.68;3.78;;;;;;;;;;5064011;28;20187;-89
2022/09/14 06:23:06;;;;;;;5.10;3.55;;;;;;;;;;5063222;28;20260;-90
2022/09/14 06:25:31;;;;;;;4.93;3.50;;;14.70;99.90;;;;;;5062712;28;20186;-90
2022/09/14 06:27:57;;;;;;;7.68;3.83;;;15.00;99.90;;;;;;5066584;28;20616;-89
2022/09/14 06:30:23;;;;;;;6.22;3.83;;;;;;;;;;5073545;28;20195;-88
2022/09/14 06:32:49;;;;;;;6.72;4.50;;;14.30;99.90;;;;;;5069367;28;20190;-89
2022/09/14 06:35:15;;;;;;;6.55;3.80;;;;;;;;;;5060572;28;20263;-89
2022/09/14 06:37:41;;;;;;;5.18;4.10;;;;;;;;;;5072958;28;20218;-87
2022/09/14 06:40:07;;;;;;;3.50;3.08;;;;;;;;;;5054442;28;20179;-89
2022/09/14 06:42:32;;;;;;;7.60;3.80;;;14.70;99.90;;;;;;5036758;28;20531;-89
2022/09/14 06:44:58;;;;;;;5.53;3.92;;;;;;;;;;5036245;28;20181;-89
2022/09/14 06:47:24;;;;;;;6.25;4.38;;;;;;;;;;5034188;28;20601;-89
2022/09/14 06:49:50;;;;;;;4.93;3.85;;;;;;;;;;5033286;28;20223;-89
2022/09/14 06:52:16;;;;;;;4.60;3.08;;;15.30;99.90;;;;;;5034118;28;20630;-89
2022/09/14 06:54:42;;;;;;;6.18;4.15;;;;;;;;;;5034166;28;20263;-90
2022/09/14 06:57:07;;;;;;;6.93;4.53;;;15.20;99.90;;;;;;5017215;28;20246;-89
2022/09/14 06:59:33;;;;;;;7.50;4.88;;;15.70;99.90;;;;;;5036122;28;20204;-88
2022/09/14 07:01:59;;;;;;;6.28;4.70;;;;;;;;;;5005617;28;20185;-89
2022/09/14 07:04:25;;;;;;;5.63;3.60;;;;;;;;;;5049445;28;20565;-88
2022/09/14 07:06:51;;;;;;;5.72;4.70;;;;;;;;;;5019776;28;20188;-88
2022/09/14 07:09:18;;;;;;;5.32;3.65;;;14.90;99.90;;;;;;5036208;28;20218;-89
2022/09/14 07:11:44;;;;;;;12.45;4.60;;;15.40;99.90;;;;;;5036080;28;20211;-88
2022/09/14 07:14:10;;;;;;;6.20;3.83;;;15.50;99.90;;;;;;5035750;28;20176;-88
2022/09/14 07:16:38;;;;;;;5.82;4.00;;;15.60;99.90;;;;;;5035943;28;20233;-89
2022/09/14 07:19:09;;;;;;;6.47;3.33;;;15.70;99.90;;;;;;5015687;28;20657;-89
2022/09/14 07:21:35;;;;;;;6.40;4.22;;;15.80;99.90;;;;;;5033890;28;20164;-89
2022/09/14 07:24:01;;;;;;;4.88;3.17;;;15.90;99.90;;;;;;5033858;28;20640;-90
2022/09/14 07:26:29;;;;;;;6.47;3.65;;;16.00;99.90;;;;;;5033341;28;20252;-90
2022/09/14 07:29:01;;;;;;;5.57;4.18;;;16.10;99.90;;;;;;5032167;28;20181;-88
2022/09/14 07:31:32;;;;;;;5.75;4.40;;;16.20;99.90;;;;;;5034428;28;20259;-89
2022/09/14 07:34:03;;;;;;;5.28;3.28;;;16.30;99.90;;;;;;5038744;28;20168;-89
2022/09/14 07:36:30;;;;;;;5.55;3.92;;;16.40;99.90;;;;;;5047048;28;20180;-88
2022/09/14 07:38:56;;;;;;;4.72;3.17;;;16.60;99.90;;;;;;5053380;28;20168;-88
2022/09/14 07:41:24;;;;;;;4.07;2.83;;;16.70;99.90;;;;;;5053062;28;20690;-88
2022/09/14 07:43:51;;;;;;;2.95;2.05;;;16.80;99.90;;;;;;5053214;28;20179;-88
2022/09/14 07:46:18;;;;;;;4.70;3.03;;;17.00;99.90;;;;;;5052990;28;20175;-89
2022/09/14 07:48:44;;;;;;;4.18;2.75;;;17.10;99.90;;;;;;5014897;28;20200;-89
2022/09/14 07:51:10;;;;;;;3.15;2.50;;;17.20;99.90;;;;;;5015853;28;20796;-87
2022/09/14 07:53:38;;;;;;;4.10;2.85;;;17.20;99.90;;;;;;5032155;28;20203;-90
2022/09/14 07:56:04;;;;;;;3.60;2.47;;;17.30;99.90;;;;;;5032914;28;20572;-91
2022/09/14 07:58:30;;;;;;;4.90;2.80;;;17.40;99.90;;;;;;5032420;28;20183;-88
2022/09/14 08:01:10;;;;;;;5.25;2.88;;;17.00;99.90;;;;;;5032806;28;20543;-89
2022/09/14 08:03:37;;;;;;;3.42;2.88;;;;;;;;;;5024134;28;20164;-88
2022/09/14 08:06:06;;;;;;;3.95;2.75;;;17.50;99.90;;;;;;5043425;28;20187;-88
2022/09/14 08:08:35;;;;;;;4.70;3.45;;;17.50;99.90;;;;;;5043099;28;20218;-87
2022/09/14 08:11:14;;;;;;;2.63;1.88;;;17.40;99.90;;;;;;5041575;28;20196;-88
2022/09/14 08:13:43;;;;;;;3.80;2.33;;;17.70;99.90;;;;;;5042190;28;20175;-89
2022/09/14 08:16:10;;;;;;;3.97;2.13;;;17.60;99.90;;;;;;5041055;28;20532;-89
2022/09/14 08:18:36;;;;;;;4.70;2.35;;;17.40;99.90;;;;;;5040735;28;20172;-88
2022/09/14 08:21:11;;;;;;;3.22;2.30;;;17.80;99.90;;;;;;5020416;28;20183;-89
2022/09/14 08:23:38;;;;;;;2.75;1.98;;;17.80;99.90;;;;;;5043848;28;20159;-89
2022/09/14 08:26:18;;;;;;;3.22;1.92;;;17.80;99.90;;;;;;5023179;28;20176;-89
2022/09/14 08:28:46;;;;;;;5.28;2.20;;;18.30;99.90;;;;;;5035261;28;20179;-90
2022/09/14 08:31:12;;;;;;;4.13;2.45;;;;;;;;;;5042188;28;20211;-88
2022/09/14 08:33:47;;;;;;;4.47;2.00;;;17.70;99.90;;;;;;5041174;28;20187;-89
2022/09/14 08:36:16;;;;;;;2.80;1.83;;;18.00;99.90;;;;;;5024787;28;20261;-89
2022/09/14 08:38:42;;;;;;;3.15;2.20;;;17.60;99.90;;;;;;5050608;28;20168;-90
2022/09/14 08:41:13;;;;;;;2.92;2.63;;;17.90;99.90;;;;;;5053325;28;20709;-89
2022/09/14 08:43:39;;;;;;;2.97;1.95;;;;;;;;;;5071377;28;20171;-91
2022/09/14 08:46:14;;;;;;;3.80;2.47;;;18.00;99.90;;;;;;5078642;28;20197;-89
2022/09/14 08:48:46;;;;;;;5.40;1.83;;;18.00;99.90;;;;;;5070873;28;20166;-90
2022/09/14 08:51:12;;;;;;;3.70;2.60;;;;;;;;;;5071292;28;20521;-91
2022/09/14 08:53:40;;;;;;;2.70;2.22;;;18.10;99.90;;;;;;5071087;28;20181;-90
2022/09/14 08:56:16;;;;;;;4.03;2.22;;;18.30;99.90;;;;;;5071282;28;20205;-90
2022/09/14 08:59:02;;;;;;;4.43;2.10;;;18.90;99.90;;;;;;5071372;28;20618;-91
2022/09/14 09:01:58;;;;;;;2.53;2.03;;;18.70;99.90;;;;;;5071900;28;20174;-92
2022/09/14 09:04:52;;;;;;;3.03;1.80;;;18.70;99.90;;;;;;5072935;28;20163;-90
2022/09/14 09:08:05;;;;;;;1.63;1.42;;;18.70;99.90;;;;;;5073308;28;20179;-92
2022/09/14 09:10:32;;;;;;;1.73;1.23;;;19.20;99.90;;;;;;5071534;28;20227;-92
2022/09/14 09:13:00;;;;;;;3.33;1.67;;;19.30;99.90;;;;;;5072884;28;20171;-91
2022/09/14 09:15:31;;;;;;;3.38;1.80;;;19.80;99.90;;;;;;5072833;28;20180;-92
2022/09/14 09:18:15;;;;;;;1.60;1.23;;;19.60;99.90;;;;;;5073183;28;20159;-92
2022/09/14 09:20:48;;;;;;;2.05;1.83;;;19.60;99.90;;;;;;5072449;28;20160;-91
2022/09/14 09:23:17;;;;;;;3.70;2.30;;;19.80;99.90;;;;;;5074565;28;20155;-91
2022/09/14 09:25:58;;;;;;;2.35;1.67;;;18.90;99.90;;;;;;5072493;28;20199;-93
2022/09/14 09:28:25;;;;;;;4.70;2.20;;;19.20;99.90;;;;;;5075827;28;20166;-92
2022/09/14 09:30:53;;;;;;;4.13;2.33;;;19.10;99.90;;;;;;5076455;28;20268;-92
2022/09/14 09:33:22;;;;;;;3.60;1.42;;;19.00;99.90;;;;;;5076917;28;20225;-92
2022/09/14 09:35:49;;;;;;;1.15;1.05;;;19.60;99.90;;;;;;5075931;28;20171;-92
2022/09/14 09:38:18;;;;;;;1.90;1.58;;;19.10;99.90;;;;;;5076645;28;20171;-91
2022/09/14 09:40:56;;;;;;;3.58;1.75;;;;;;;;;;5053517;28;20228;-92
2022/09/14 09:43:22;;;;;;;3.67;1.15;;;;;;;;;;5038877;28;20206;-89
2022/09/14 09:45:48;;;;;;;3.80;1.70;;;;;;;;;;5052108;28;20192;-90
2022/09/14 09:48:17;;;;;;;3.38;2.28;;;19.80;99.90;;;;;;5056926;28;20171;-90
2022/09/14 09:51:14;;;;;;;3.55;2.58;;;20.10;99.90;;;;;;5055647;28;20203;-91
2022/09/14 09:53:51;;;;;;;1.88;1.38;;;19.50;99.90;;;;;;5055210;28;20160;-91
2022/09/14 09:56:26;;;;;;;2.85;1.60;;;20.00;99.90;;;;;;5055757;28;20163;-91
2022/09/14 09:58:52;;;;;;;2.88;1.63;;;;;;;;;;5055320;28;20650;-91
2022/09/14 10:01:28;;;;;;;1.88;1.50;;;19.80;99.90;;;;;;5056206;28;20172;-91
2022/09/14 10:04:02;;;;;;;2.08;1.27;;;20.10;99.90;;;;;;5026218;28;20187;-91
2022/09/14 10:06:29;;;;;;;1.95;1.20;;;;;;;;;;5052654;28;20525;-91
2022/09/14 10:08:58;;;;;;;1.98;1.13;;;20.20;99.90;;;;;;5043717;28;20621;-90
2022/09/14 10:11:35;;;;;;;1.45;1.20;;;19.60;99.90;;;;;;5030061;28;20199;-91
2022/09/14 10:14:03;;;;;;;1.73;1.02;;;20.20;99.90;;;;;;5042588;28;20192;-92
2022/09/14 10:16:35;;;;;;;1.45;1.20;;;20.30;99.90;;;;;;5046701;28;20173;-91
2022/09/14 10:19:02;;;;;;;1.10;1.00;;;;;;;;;;5046838;28;20672;-91
2022/09/14 10:21:30;;;;;;;1.75;1.23;;;;;;;;;;5042501;28;20188;-91
2022/09/14 10:24:19;;;;;;;1.08;1.08;;;20.30;99.90;;;;;;5043732;28;20175;-91
2022/09/14 10:26:45;;;;;;;1.30;1.10;;;;;;;;;;5042421;28;20180;-91
2022/09/14 10:29:29;;;;;;;1.55;1.27;;;20.70;99.90;;;;;;5044367;28;20176;-91
2022/09/14 10:32:01;;;;;;;1.15;0.95;;;20.60;99.90;;;;;;5042293;28;20714;-91
2022/09/14 10:34:27;;;;;;;1.33;1.17;;;20.60;99.90;;;;;;5044215;28;20169;-92
2022/09/14 10:36:58;;;;;;;2.88;1.63;;;;;;;;;;5026630;28;20168;-92
2022/09/14 10:39:57;;;;;;;1.13;1.00;;;21.10;99.90;;;;;;5043182;28;20171;-88
2022/09/14 10:42:37;;;;;;;2.17;1.30;;;21.30;99.90;;;;;;5061688;28;20199;-90
2022/09/14 10:45:03;;;;;;;1.08;0.75;;;;;;;;;;5070139;28;20164;-88
2022/09/14 10:47:50;;;;;;;1.27;1.08;;;20.70;99.90;;;;;;5063055;28;20207;-90
2022/09/14 10:50:54;;;;;;;1.10;1.00;;;20.90;99.90;;;;;;5062645;28;20218;-90
2022/09/14 10:53:47;;;;;;;1.25;1.00;;;21.10;99.90;;;;;;5062238;28;20195;-89
2022/09/14 10:56:25;;;;;;;2.50;1.33;;;21.60;99.90;;;;;;5064859;28;20175;-93
2022/09/14 10:59:18;;;;;;;1.05;0.93;;;21.00;99.90;;;;;;5064987;28;20190;-91
2022/09/14 11:01:49;;;;;;;3.13;1.05;;;20.50;99.90;;;;;;5060661;28;20180;-93
2022/09/14 11:04:46;;;;;;;0.60;0.60;;;20.60;99.90;;;;;;5066670;28;20167;-92
2022/09/14 11:07:30;;;;;;;0.80;0.80;;;21.10;99.90;;;;;;5075023;28;20172;-90
2022/09/14 11:10:20;;;;;;;0.82;0.70;;;20.20;99.90;;;;;;5086754;28;20220;-92
2022/09/14 11:13:31;;;;;;;1.80;1.10;;;20.30;99.90;;;;;;5082698;28;20182;-90
2022/09/14 11:16:06;;;;;;;1.92;0.88;;;;;;;;;;5073101;28;20205;-92
2022/09/14 11:18:41;;;;;;;1.80;1.10;;;;;;;;;;5061204;28;20647;-91
2022/09/14 11:21:34;;;;;;;3.28;0.88;;;20.50;99.90;;;;;;5062898;28;20179;-91
2022/09/14 11:29:18;;;;;;;0.60;0.60;;;;;;;;;;4977314;22;20361;-91
2022/09/14 11:32:14;;;;;;;0.82;0.82;;;20.70;99.90;;;;;;4962355;28;20278;-91
2022/09/14 11:35:12;;;;;;;0.70;0.60;;;20.80;99.90;;;;;;4989711;28;20176;-91
2022/09/14 11:37:43;;;;;;;0.93;0.80;;;21.00;99.90;;;;;;4974954;28;20210;-91
2022/09/14 11:40:18;;;;;;;0.90;0.70;;;21.00;99.90;;;;;;4981679;28;20217;-91
2022/09/14 11:42:57;;;;;;;3.30;0.60;;;20.90;99.90;;;;;;4979587;28;20173;-91
2022/09/14 11:45:35;;;;;;;6.97;1.35;;;20.90;99.90;;;;;;4999295;28;20178;-91
2022/09/14 11:48:05;;;;;;;1.20;1.08;;;20.80;99.90;;;;;;4999591;28;20221;-90
2022/09/14 11:50:32;;;;;;;1.00;0.90;;;20.90;99.90;;;;;;4998276;28;20198;-90
2022/09/14 11:53:11;;;;;;;1.48;1.00;;;20.90;99.90;;;;;;4998384;28;20275;-90
2022/09/14 11:55:40;;;;;;;5.22;2.38;;;20.80;99.90;;;;;;4996942;28;20186;-90
2022/09/14 11:58:12;;;;;;;0.90;0.90;;;20.80;99.90;;;;;;4994976;28;20175;-90
2022/09/14 12:00:57;;;;;;;0.73;0.70;;;20.60;99.90;;;;;;4991878;28;20234;-92
2022/09/14 12:03:44;;;;;;;2.72;1.27;;;20.60;99.90;;;;;;4997696;28;20175;-90
2022/09/14 12:06:28;;;;;;;1.08;0.98;;;21.00;99.90;;;;;;4998948;28;20315;-91
2022/09/14 12:08:54;;;;;;;0.73;0.73;;;21.00;99.90;;;;;;4990389;28;20188;-91
2022/09/14 12:11:25;;;;;;;1.10;0.98;;;20.40;99.90;;;;;;4993906;28;20198;-92
2022/09/14 12:14:14;;;;;;;1.05;0.98;;;20.50;99.90;;;;;;4995464;28;20271;-92
2022/09/14 12:17:21;;;;;;;1.42;1.00;;;21.00;99.90;;;;;;4993498;28;20187;-91
2022/09/14 12:19:51;;;;;;;1.75;1.05;;;20.60;99.90;;;;;;4977642;28;20183;-90
2022/09/14 12:22:29;;;;;;;1.45;1.13;;;21.20;99.90;;;;;;4992316;28;20186;-91
2022/09/14 12:25:16;;;;;;;0.98;0.93;;;20.60;99.90;;;;;;4987189;28;20169;-91
2022/09/14 12:27:43;;;;;;;1.38;1.13;;;20.90;99.90;;;;;;4992332;28;20246;-90
2022/09/14 12:30:32;;;;;;;0.75;0.60;;;21.00;99.90;;;;;;4987525;28;20190;-89
2022/09/14 12:32:58;;;;;;;1.42;0.63;;;;;;;;;;4977504;28;20186;-91
2022/09/14 12:35:33;;;;;;;1.30;0.85;;;20.90;99.90;;;;;;4975068;28;20197;-89
2022/09/14 12:38:19;;;;;;;1.27;0.98;;;21.20;99.90;;;;;;4964525;28;20254;-91
2022/09/14 12:40:46;;;;;;;1.60;0.85;;;;;;;;;;4970364;28;20245;-89
2022/09/14 12:43:36;;;;;;;3.22;1.35;;;21.20;99.90;;;;;;4952667;28;20639;-91
2022/09/14 12:46:20;;;;;;;0.73;0.73;;;21.20;99.90;;;;;;4971464;28;20182;-90
2022/09/14 12:48:51;;;;;;;1.55;1.35;;;;;;;;;;4974788;28;20178;-92
2022/09/14 12:51:27;;;;;;;1.17;0.80;;;21.30;99.90;;;;;;4956985;28;20217;-92
2022/09/14 12:54:02;;;;;;;0.70;0.70;;;21.00;99.90;;;;;;4975219;28;20557;-93
2022/09/14 12:56:55;;;;;;;5.45;1.17;;;21.40;99.90;;;;;;4974266;28;20183;-92
2022/09/14 12:59:21;;;;;;;0.75;0.70;;;;;;;;;;4974278;28;20205;-91
2022/09/14 13:01:56;;;;;;;1.17;0.77;;;21.10;99.90;;;;;;4956440;28;20755;-93
2022/09/14 13:04:25;;;;;;;1.42;1.20;;;20.80;99.90;;;;;;4978493;28;20631;-91
2022/09/14 13:06:52;;;;;;;1.10;1.00;;;21.10;99.90;;;;;;4978143;28;20197;-92
2022/09/14 13:09:21;;;;;;;1.50;1.00;;;21.00;99.90;;;;;;4978143;28;20659;-92
2022/09/14 13:12:08;;;;;;;0.90;0.90;;;20.90;99.90;;;;;;4978518;28;20317;-92
2022/09/14 13:14:44;;;;;;;1.90;1.05;;;21.00;99.90;;;;;;4978504;28;20221;-93
2022/09/14 13:17:12;;;;;;;1.75;1.10;;;21.00;99.90;;;;;;4978661;28;20177;-93
2022/09/14 13:19:38;;;;;;;0.85;0.85;;;;;;;;;;4979607;28;20178;-92
2022/09/14 13:22:20;;;;;;;1.40;1.30;;;21.10;99.90;;;;;;4960725;28;20289;-93
2022/09/14 13:24:47;;;;;;;2.08;1.20;;;21.10;99.90;;;;;;4961301;28;20175;-92
2022/09/14 13:27:22;;;;;;;6.00;1.48;;;21.10;99.90;;;;;;4960697;28;20233;-93
2022/09/14 13:29:48;;;;;;;1.00;0.90;;;;;;;;;;4977761;28;20170;-91
2022/09/14 13:32:19;;;;;;;1.00;0.90;;;20.80;99.90;;;;;;4976965;28;20260;-91
2022/09/14 13:34:45;;;;;;;1.20;1.10;;;;;;;;;;4976440;28;20635;-93
2022/09/14 13:37:13;;;;;;;1.10;1.00;;;20.70;99.90;;;;;;4977098;28;20643;-91
2022/09/14 13:39:40;;;;;;;0.95;0.82;;;;;;;;;;4976851;28;20179;-92
2022/09/14 13:42:08;;;;;;;1.25;1.15;;;20.80;99.90;;;;;;4973557;28;20321;-92
2022/09/14 13:44:44;;;;;;;1.00;0.80;;;20.50;99.90;;;;;;4975259;28;20186;-92
2022/09/14 13:47:28;;;;;;;2.45;0.95;;;20.40;99.90;;;;;;4975936;28;20592;-90
2022/09/14 13:49:55;;;;;;;1.65;0.98;;;;;;;;;;4977291;28;20217;-94
2022/09/14 13:52:21;;;;;;;3.88;1.20;;;;;;;;;;4959532;28;20218;-93
2022/09/14 13:54:48;;;;;;;2.50;0.95;;;20.40;99.90;;;;;;4975979;28;20182;-90
2022/09/14 13:57:20;;;;;;;1.05;0.90;;;20.50;99.90;;;;;;4958079;28;20175;-90
2022/09/14 14:00:15;;;;;;;2.22;1.20;;;20.60;99.90;;;;;;4981111;28;20186;-92
2022/09/14 14:03:03;;;;;;;1.02;0.90;;;20.60;99.90;;;;;;4976873;28;20193;-88
2022/09/14 14:05:31;;;;;;;2.45;0.85;;;20.50;99.90;;;;;;4979542;28;20290;-90
2022/09/14 14:07:58;;;;;;;1.13;0.95;;;20.60;99.90;;;;;;4960926;28;20179;-93
2022/09/14 14:10:31;;;;;;;1.65;1.20;;;20.50;99.90;;;;;;4977313;28;20233;-89
2022/09/14 14:12:57;;;;;;;0.82;0.80;;;;;;;;;;4980190;28;20217;-92
2022/09/14 14:15:23;;;;;;;1.35;0.90;;;;;;;;;;4969718;28;20182;-92
2022/09/14 14:17:50;;;;;;;2.03;1.13;;;;;;;;;;4980058;28;20187;-90
2022/09/14 14:20:35;;;;;;;1.27;0.80;;;20.10;99.90;;;;;;4996517;28;20183;-89
2022/09/14 14:23:09;;;;;;;1.80;1.23;;;19.70;99.90;;;;;;4978522;28;20244;-93
2022/09/14 14:25:46;;;;;;;2.40;1.10;;;19.90;99.90;;;;;;4969878;28;20187;-92
2022/09/14 14:28:38;;;;;;;2.17;1.33;;;19.60;99.90;;;;;;4977161;28;20233;-93
2022/09/14 14:31:07;;;;;;;1.42;0.95;;;19.60;99.90;;;;;;4972840;28;20218;-92
2022/09/14 14:33:35;;;;;;;1.00;0.90;;;;;;;;;;4976406;28;20178;-91
2022/09/14 14:36:08;;;;;;;2.92;1.15;;;19.50;99.90;;;;;;4980275;28;20175;-89
2022/09/14 14:38:34;;;;;;;1.98;1.10;;;;;;;;;;4960003;28;20187;-91
2022/09/14 14:41:00;;;;;;;2.30;1.10;;;;;;;;;;4965124;28;20219;-92
2022/09/14 14:43:26;;;;;;;2.33;1.40;;;;;;;;;;4939660;28;20191;-90
2022/09/14 14:45:58;;;;;;;2.30;1.23;;;19.90;99.90;;;;;;4942398;28;20202;-91
2022/09/14 14:48:24;;;;;;;1.33;1.05;;;19.80;99.90;;;;;;4972927;28;20179;-95
2022/09/14 14:50:51;;;;;;;4.45;1.50;;;;;;;;;;4975479;28;20686;-92
2022/09/14 14:53:17;;;;;;;1.45;1.05;;;;;;;;;;4974684;28;20194;-89
2022/09/14 14:55:43;;;;;;;1.35;1.17;;;;;;;;;;4973471;28;20187;-92
2022/09/14 14:58:15;;;;;;;1.30;0.70;;;19.70;99.90;;;;;;4942551;28;20206;-92
2022/09/14 15:00:41;;;;;;;1.38;1.02;;;;;;;;;;4975071;28;20185;-91
2022/09/14 15:03:07;;;;;;;2.80;1.20;;;;;;;;;;4941731;28;20190;-90
2022/09/14 15:05:33;;;;;;;1.65;1.20;;;;;;;;;;4975244;28;20195;-87
2022/09/14 15:08:00;;;;;;;1.67;1.08;;;;;;;;;;4975263;28;20186;-88
2022/09/14 15:10:28;;;;;;;1.65;1.45;;;19.50;99.90;;;;;;4956324;28;20194;-91
2022/09/14 15:12:54;;;;;;;2.20;1.50;;;;;;;;;;4975705;28;20175;-90
2022/09/14 15:15:24;;;;;;;2.42;1.70;;;19.50;99.90;;;;;;4958038;28;20179;-89
2022/09/14 15:17:51;;;;;;;1.55;1.35;;;19.50;99.90;;;;;;4957542;28;20190;-91
2022/09/14 15:20:18;;;;;;;2.03;1.23;;;19.90;99.90;;;;;;4957546;28;20190;-91
2022/09/14 15:22:44;;;;;;;1.17;1.08;;;;;;;;;;4974374;28;20285;-92
2022/09/14 15:25:11;;;;;;;1.65;1.00;;;19.40;99.90;;;;;;4941307;28;20338;-90
2022/09/14 15:27:37;;;;;;;1.27;1.05;;;;;;;;;;4974876;28;20230;-92
2022/09/14 15:30:04;;;;;;;2.22;1.45;;;19.30;99.90;;;;;;4973913;28;20589;-91
2022/09/14 15:32:31;;;;;;;2.08;1.55;;;;;;;;;;4968161;28;20221;-91
2022/09/14 15:34:56;;;;;;;2.47;1.38;;;19.00;99.90;;;;;;4976991;28;20643;-91
2022/09/14 15:37:22;;;;;;;1.75;1.45;;;;;;;;;;4961022;28;20305;-92
2022/09/14 15:39:49;;;;;;;2.13;1.45;;;;;;;;;;4976382;28;20309;-91
2022/09/14 15:42:15;;;;;;;4.28;1.48;;;;;;;;;;4975192;28;20182;-91
2022/09/14 15:44:41;;;;;;;2.80;1.73;;;19.40;99.90;;;;;;4974714;28;20182;-93
2022/09/14 15:47:08;;;;;;;3.13;1.55;;;19.00;99.90;;;;;;4974959;28;20183;-92
2022/09/14 15:49:34;;;;;;;1.75;1.50;;;;;;;;;;4974536;28;20667;-91
2022/09/14 15:52:00;;;;;;;2.38;1.77;;;;;;;;;;4974588;28;20305;-92
2022/09/14 15:54:32;;;;;;;1.75;1.45;;;19.00;99.90;;;;;;4974249;28;20243;-90
2022/09/14 15:56:59;;;;;;;1.70;1.55;;;;;;;;;;4966680;28;20182;-93
2022/09/14 15:59:25;;;;;;;2.50;1.60;;;;;;;;;;4971954;28;20186;-91
2022/09/14 16:01:51;;;;;;;2.28;1.40;;;;;;;;;;4970074;28;20229;-91
2022/09/14 16:04:17;;;;;;;1.45;1.20;;;;;;;;;;4970558;28;20190;-91
2022/09/14 16:06:43;;;;;;;1.63;1.25;;;;;;;;;;4974144;28;20183;-91
2022/09/14 16:09:11;;;;;;;1.48;1.38;;;18.50;99.90;;;;;;4974525;28;20650;-90
2022/09/14 16:11:38;;;;;;;1.92;1.40;;;18.40;99.90;;;;;;4974059;28;20237;-91
2022/09/14 16:14:05;;;;;;;4.65;1.33;;;18.40;99.90;;;;;;4973247;28;20657;-90
2022/09/14 16:16:31;;;;;;;1.50;1.20;;;;;;;;;;4957358;28;20186;-91
2022/09/14 16:18:57;;;;;;;3.85;1.90;;;;;;;;;;4970871;28;20186;-91
2022/09/14 16:21:26;;;;;;;1.77;1.30;;;18.20;99.90;;;;;;4963072;28;20185;-91
2022/09/14 16:23:55;;;;;;;1.73;1.48;;;17.90;99.90;;;;;;4967621;28;20189;-93
2022/09/14 16:26:26;;;;;;;1.73;1.17;;;18.00;99.90;;;;;;4974681;28;20182;-91
2022/09/14 16:28:52;;;;;;;2.10;1.88;;;18.00;99.90;;;;;;4974180;28;20233;-91
2022/09/14 16:31:38;;;;;;;5.25;1.17;;;18.00;99.90;;;;;;4974666;28;20213;-93
2022/09/14 16:34:07;;;;;;;1.17;1.05;;;17.90;99.90;;;;;;4976544;28;20197;-92
2022/09/14 16:36:36;;;;;;;1.52;1.35;;;18.00;99.90;;;;;;4975773;28;20639;-92
2022/09/14 16:39:04;;;;;;;1.60;1.20;;;18.20;99.90;;;;;;4979133;28;20190;-93
2022/09/14 16:41:31;;;;;;;1.90;1.40;;;17.20;99.90;;;;;;4974627;28;20181;-91
2022/09/14 16:44:01;;;;;;;3.17;1.13;;;17.40;99.90;;;;;;4974966;28;20187;-92
2022/09/14 16:46:29;;;;;;;1.02;0.95;;;17.60;99.90;;;;;;4977579;28;20171;-91
2022/09/14 16:48:55;;;;;;;2.85;1.60;;;;;;;;;;4976764;28;20677;-89
2022/09/14 16:51:23;;;;;;;1.30;1.08;;;18.00;99.90;;;;;;4992396;28;20213;-91
2022/09/14 16:53:50;;;;;;;1.92;1.60;;;17.30;99.90;;;;;;4981683;28;20190;-92
2022/09/14 16:56:24;;;;;;;2.70;1.27;;;17.30;99.90;;;;;;4978881;28;20176;-93
2022/09/14 16:58:51;;;;;;;1.85;1.20;;;17.50;99.90;;;;;;4975283;28;20178;-92
2022/09/14 17:01:20;;;;;;;2.35;1.83;;;16.80;99.90;;;;;;4957011;28;20197;-92
2022/09/14 17:03:48;;;;;;;2.80;1.60;;;16.90;99.90;;;;;;4974188;28;20197;-93
2022/09/14 17:06:19;;;;;;;2.42;1.48;;;16.80;99.90;;;;;;4974032;28;20175;-93
2022/09/14 17:08:45;;;;;;;2.83;1.05;;;16.50;99.90;;;;;;4973832;28;20178;-93
2022/09/14 17:11:12;;;;;;;0.95;0.88;;;16.80;99.90;;;;;;4956603;28;20210;-93
2022/09/14 17:13:39;;;;;;;2.40;2.08;;;17.20;99.90;;;;;;4973446;28;20182;-94
2022/09/14 17:16:11;;;;;;;2.85;2.10;;;16.50;99.90;;;;;;4973518;28;20179;-93
2022/09/14 17:18:38;;;;;;;5.80;2.13;;;16.60;99.90;;;;;;4973694;28;20210;-91
2022/09/14 17:21:20;;;;;;;2.50;1.50;;;16.60;99.90;;;;;;4973340;28;20606;-91
2022/09/14 17:23:47;;;;;;;4.85;2.90;;;16.60;99.90;;;;;;4973486;28;20701;-90
2022/09/14 17:26:16;;;;;;;3.10;2.10;;;16.50;99.90;;;;;;4973508;28;20286;-91
2022/09/14 17:28:44;;;;;;;3.30;1.92;;;16.50;99.90;;;;;;4973303;28;20237;-93
2022/09/14 17:31:11;;;;;;;5.32;2.45;;;16.80;99.90;;;;;;4972346;28;20249;-93
2022/09/14 17:33:37;;;;;;;2.88;1.90;;;;;;;;;;4970951;28;20647;-93
2022/09/14 17:36:04;;;;;;;3.42;2.10;;;16.10;99.90;;;;;;4972184;28;20586;-92
2022/09/14 17:38:38;;;;;;;4.97;2.58;;;16.20;99.90;;;;;;4975522;28;20174;-91
2022/09/14 17:41:07;;;;;;;2.47;1.90;;;15.80;99.90;;;;;;4958940;28;20273;-93
2022/09/14 17:43:34;;;;;;;2.92;2.10;;;15.70;99.90;;;;;;4957104;28;20190;-91
2022/09/14 17:46:01;;;;;;;3.33;2.22;;;16.00;99.90;;;;;;4972261;28;20237;-92
2022/09/14 17:48:31;;;;;;;2.97;2.28;;;15.60;99.90;;;;;;4956929;28;20610;-91
2022/09/14 17:50:57;;;;;;;2.88;2.15;;;16.10;99.90;;;;;;4964138;28;20203;-91
2022/09/14 17:53:23;;;;;;;2.72;1.80;;;16.10;99.90;;;;;;4976492;28;20193;-92
2022/09/14 17:55:50;;;;;;;2.33;2.08;;;15.80;99.90;;;;;;4979391;28;20202;-92
2022/09/14 17:58:16;;;;;;;3.10;2.42;;;;;;;;;;4958573;28;20575;-91
2022/09/14 18:00:42;;;;;;;5.00;2.35;;;16.00;99.90;;;;;;4965671;28;20190;-89
2022/09/14 18:03:08;;;;;;;5.20;3.13;;;;;;;;;;4977258;28;20984;-89
2022/09/14 18:05:34;;;;;;;3.50;2.30;;;16.10;99.90;;;;;;4977909;28;20236;-90
2022/09/14 18:07:59;;;;;;;2.85;2.55;;;15.90;99.90;;;;;;4977196;28;20175;-90
2022/09/14 18:10:25;;;;;;;2.53;2.15;;;15.40;99.90;;;;;;4977350;28;20241;-92
2022/09/14 18:12:52;;;;;;;3.25;2.17;;;15.50;99.90;;;;;;4976362;28;20190;-92
2022/09/14 18:15:18;;;;;;;4.22;2.45;;;15.50;99.90;;;;;;4982172;28;20187;-91
2022/09/14 18:17:45;;;;;;;5.15;3.10;;;15.30;99.90;;;;;;4949505;28;20210;-90
2022/09/14 18:20:13;;;;;;;3.65;2.67;;;15.60;99.90;;;;;;4959979;28;20211;-90
2022/09/14 18:22:39;;;;;;;6.13;3.30;;;;;;;;;;4959354;28;20186;-90